Time;durP1;ratioP1;P1;durP2;ratioP2;P2;SDS_P1;SDS_P2;PMS_P1;PMS_P2;Temp;Humidity;BMP_temperature;BMP_pressure;BME280_temperature;BME280_humidity;BME280_pressure;Samples;Min_cycle;Max_cycle;Signal;HPM_P1;HPM_P2
2022/01/18 00:02:25;;;;;;;7.07;4.75;;;;;;;2.00;100.00;97543.59;5131942;27;24770;-76
2022/01/18 00:04:53;;;;;;;6.60;5.18;;;;;;;2.00;100.00;97546.16;5131258;28;25068;-75
2022/01/18 00:07:19;;;;;;;8.05;5.45;;;;;;;2.01;100.00;97548.72;5131073;28;24448;-76
2022/01/18 00:09:46;;;;;;;6.43;5.50;;;;;;;1.92;100.00;97541.91;5131430;28;25027;-76
2022/01/18 00:12:30;;;;;;;5.50;5.00;;;;;;;1.98;100.00;97548.72;5131602;27;24428;-76
2022/01/18 00:15:17;;;;;;;5.75;4.90;;;;;;;2.04;100.00;97545.31;5131792;28;24449;-76
2022/01/18 00:17:53;;;;;;;5.90;4.82;;;;;;;2.02;100.00;97542.75;5131270;28;24421;-76
2022/01/18 00:20:31;;;;;;;7.07;5.05;;;;;;;2.04;100.00;97548.72;5131224;28;24825;-76
2022/01/18 00:22:58;;;;;;;5.90;5.30;;;;;;;2.06;100.00;97547.00;5131696;28;24509;-76
2022/01/18 00:25:24;;;;;;;7.13;5.57;;;;;;;2.09;100.00;97552.13;5131380;28;24845;-77
2022/01/18 00:27:51;;;;;;;5.80;5.30;;;;;;;2.09;100.00;97549.56;5131422;28;24470;-76
2022/01/18 00:30:36;;;;;;;5.87;5.27;;;;;;;2.11;100.00;97558.09;5131689;28;24490;-76
2022/01/18 00:33:15;;;;;;;6.78;5.78;;;;;;;2.14;100.00;97554.66;5131561;28;24448;-76
2022/01/18 00:35:45;;;;;;;6.78;5.63;;;;;;;2.15;100.00;97556.38;5131460;28;24779;-76
2022/01/18 00:38:17;;;;;;;5.95;5.45;;;;;;;2.14;100.00;97557.22;5131541;28;24477;-76
2022/01/18 00:40:44;;;;;;;7.40;6.38;;;;;;;2.14;100.00;97554.66;5131616;28;24428;-76
2022/01/18 00:43:10;;;;;;;8.85;7.78;;;;;;;2.17;100.00;97560.63;5131407;28;24428;-76
2022/01/18 00:45:37;;;;;;;21.13;13.55;;;;;;;2.13;100.00;97561.50;5131284;28;24852;-77
2022/01/18 00:48:05;;;;;;;11.68;9.45;;;;;;;2.18;100.00;97564.88;5131240;28;24433;-76
2022/01/18 00:50:32;;;;;;;12.48;9.10;;;;;;;2.07;100.00;97564.03;5131033;27;24427;-76
2022/01/18 00:53:02;;;;;;;11.63;9.07;;;;;;;2.08;100.00;97564.91;5132454;27;24440;-76
2022/01/18 00:55:34;;;;;;;18.75;14.02;;;;;;;1.95;100.00;97564.06;5135312;27;24473;-75
2022/01/18 00:58:00;;;;;;;21.52;16.20;;;;;;;1.97;100.00;97561.53;5134555;27;24778;-76
2022/01/18 01:00:27;;;;;;;14.30;11.10;;;;;;;1.98;100.00;97560.66;5115661;27;24479;-76
2022/01/18 01:02:53;;;;;;;14.15;9.70;;;;;;;1.97;100.00;97570.03;5114242;28;24954;-77
2022/01/18 01:05:20;;;;;;;11.75;9.25;;;;;;;1.86;100.00;97562.38;5114309;28;24445;-76
2022/01/18 01:07:46;;;;;;;24.67;15.13;;;;;;;1.90;100.00;97578.56;5113921;28;24962;-76
2022/01/18 01:10:14;;;;;;;20.75;13.18;;;;;;;1.86;100.00;97572.59;5114494;28;24426;-76
2022/01/18 01:12:41;;;;;;;11.05;9.05;;;;;;;1.90;100.00;97578.56;5114037;28;24420;-76
2022/01/18 01:15:12;;;;;;;8.35;6.63;;;;;;;1.79;100.00;97568.31;5114286;28;24428;-76
2022/01/18 01:17:45;;;;;;;6.70;6.00;;;;;;;1.74;100.00;97571.72;5114114;28;24436;-76
2022/01/18 01:34:13;;;;;;;7.67;6.57;;;;;;;1.98;100.00;97581.09;5113917;28;24520;-76
2022/01/18 01:37:01;;;;;;;11.43;7.65;;;;;;;2.02;100.00;97586.19;5113603;28;24436;-76
2022/01/18 01:42:30;;;;;;;7.95;6.72;;;;;;;2.11;100.00;97590.44;5113640;28;24755;-76
2022/01/18 01:44:58;;;;;;;7.50;6.70;;;;;;;2.17;100.00;97586.19;5113654;28;24426;-76
2022/01/18 01:47:34;;;;;;;10.13;5.53;;;;;;;2.14;100.00;97588.75;5113514;28;24512;-77
2022/01/18 01:50:02;;;;;;;5.63;4.68;;;;;;;2.16;100.00;97587.06;5113490;28;24426;-76
2022/01/18 01:52:28;;;;;;;6.88;4.95;;;;;;;2.12;100.00;97587.91;5113300;28;24417;-76
2022/01/18 01:54:55;;;;;;;6.40;4.68;;;;;;;2.06;100.00;97581.94;5114560;28;24775;-76
2022/01/18 01:57:23;;;;;;;5.45;4.95;;;;;;;2.13;100.00;97575.97;5115394;28;24429;-76
2022/01/18 01:59:50;;;;;;;7.50;5.10;;;;;;;2.11;100.00;97578.56;5115233;28;24429;-76
2022/01/18 02:02:16;;;;;;;6.70;4.95;;;;;;;2.07;100.00;97586.19;5125971;27;24432;-76
2022/01/18 02:04:43;;;;;;;5.83;5.07;;;;;;;2.07;100.00;97581.09;5133630;27;24441;-76
2022/01/18 02:07:09;;;;;;;5.07;4.57;;;;;;;2.07;100.00;97588.75;5135084;27;24425;-76
2022/01/18 02:09:36;;;;;;;7.35;5.28;;;;;;;1.95;100.00;97579.38;5134101;27;24428;-76
2022/01/18 02:12:03;;;;;;;8.98;4.80;;;;;;;1.94;100.00;97591.31;5133353;27;24428;-76
2022/01/18 02:14:32;;;;;;;8.15;5.38;;;;;;;1.95;100.00;97589.59;5133193;27;24432;-76
2022/01/18 02:22:36;;;;;;;7.45;5.15;;;;;;;1.92;100.00;97587.03;5096159;27;24858;-76
2022/01/18 02:25:04;;;;;;;7.65;5.07;;;;;;;2.00;100.00;97587.03;5134785;27;24517;-76
2022/01/18 02:27:30;;;;;;;6.17;4.83;;;;;;;2.04;100.00;97581.09;5135147;27;24424;-75
2022/01/18 02:29:56;;;;;;;5.70;5.20;;;;;;;2.07;100.00;97581.94;5133155;27;24428;-76
2022/01/18 02:32:23;;;;;;;7.22;5.40;;;;;;;2.10;100.00;97592.16;5135448;27;24470;-76
2022/01/18 02:34:49;;;;;;;6.63;5.78;;;;;;;1.99;100.00;97583.66;5133677;27;24432;-76
2022/01/18 02:37:16;;;;;;;6.90;5.60;;;;;;;2.00;100.00;97575.13;5132969;27;24458;-77
2022/01/18 02:39:44;;;;;;;7.07;5.07;;;;;;;1.93;100.00;97579.41;5135213;27;24417;-76
2022/01/18 02:42:13;;;;;;;5.30;4.80;;;;;;;1.98;100.00;97581.09;5134858;27;24510;-77
2022/01/18 02:44:40;;;;;;;6.70;5.50;;;;;;;2.00;100.00;97575.13;5133126;27;24470;-75
2022/01/18 02:47:07;;;;;;;6.40;5.77;;;;;;;1.94;100.00;97577.69;5132746;27;24510;-77
2022/01/18 02:49:34;;;;;;;7.68;6.90;;;;;;;1.81;100.00;97575.97;5133781;27;24479;-76
2022/01/18 02:52:01;;;;;;;7.05;6.40;;;;;;;1.87;100.00;97579.38;5132446;27;24420;-75
2022/01/18 02:54:28;;;;;;;8.07;5.90;;;;;;;1.89;100.00;97584.47;5132519;27;24429;-76
2022/01/18 02:57:00;;;;;;;6.65;5.75;;;;;;;1.94;100.00;97582.81;5133278;27;24456;-76
2022/01/18 02:59:32;;;;;;;6.47;5.82;;;;;;;1.97;100.00;97589.63;5134647;27;24428;-76
2022/01/18 03:04:47;;;;;;;6.93;6.00;;;;;;;2.03;100.00;97584.50;5132372;27;24392;-77
2022/01/18 03:07:14;;;;;;;6.88;6.18;;;;;;;2.06;100.00;97587.91;5133154;27;24433;-76
2022/01/18 03:09:41;;;;;;;7.90;5.97;;;;;;;2.08;100.00;97593.88;5133490;27;24493;-75
2022/01/18 03:12:10;;;;;;;7.53;6.10;;;;;;;2.08;100.00;97588.78;5135282;27;24507;-76
2022/01/18 03:14:38;;;;;;;7.68;6.43;;;;;;;2.00;100.00;97585.34;5133236;27;24790;-76
2022/01/18 03:17:05;;;;;;;7.93;5.97;;;;;;;2.03;100.00;97584.50;5131655;27;24474;-76
2022/01/18 03:19:31;;;;;;;7.10;6.40;;;;;;;2.08;100.00;97586.22;5132417;27;24428;-76
2022/01/18 03:21:58;;;;;;;6.97;6.18;;;;;;;2.13;100.00;97586.19;5132367;27;24421;-77
2022/01/18 03:29:55;;;;;;;7.72;6.20;;;;;;;2.14;100.00;97582.78;5132017;27;24405;-76
2022/01/18 03:32:21;;;;;;;6.90;6.10;;;;;;;2.14;100.00;97581.09;5131935;27;24417;-76
2022/01/18 03:34:48;;;;;;;8.50;6.22;;;;;;;2.14;100.00;97582.78;5132139;27;24477;-77
2022/01/18 03:37:14;;;;;;;8.00;6.53;;;;;;;2.19;100.00;97578.53;5132679;27;24436;-76
2022/01/18 03:39:41;;;;;;;6.85;5.95;;;;;;;2.23;100.00;97576.84;5133804;27;24420;-76
2022/01/18 03:42:33;;;;;;;8.35;6.30;;;;;;;2.32;100.00;97576.81;5132117;27;24413;-76
2022/01/18 03:45:04;;;;;;;6.93;6.30;;;;;;;2.25;100.00;97577.66;5133705;27;24452;-76
2022/01/18 03:47:31;;;;;;;7.93;6.32;;;;;;;2.16;100.00;97575.97;5133627;27;24481;-76
2022/01/18 03:49:57;;;;;;;6.55;5.85;;;;;;;2.18;100.00;97577.66;5133448;27;24429;-76
2022/01/18 03:52:23;;;;;;;9.75;6.45;;;;;;;2.22;100.00;97585.34;5131388;27;24417;-76
2022/01/18 03:54:50;;;;;;;8.27;6.43;;;;;;;2.31;100.00;97591.31;5131762;27;24428;-76
2022/01/18 03:57:18;;;;;;;6.72;5.35;;;;;;;2.48;100.00;97591.25;5131403;27;24432;-77
2022/01/18 03:59:45;;;;;;;5.00;4.18;;;;;;;2.43;100.00;97596.41;5131419;27;24421;-77
2022/01/18 04:02:13;;;;;;;4.90;4.38;;;;;;;2.31;100.00;97586.19;5131724;27;24433;-76
2022/01/18 04:04:40;;;;;;;5.75;4.32;;;;;;;2.24;100.00;97592.16;5131697;27;24429;-76
2022/01/18 04:07:07;;;;;;;6.45;5.43;;;;;;;2.15;100.00;97595.59;5133266;27;24460;-76
2022/01/18 04:09:34;;;;;;;7.57;6.32;;;;;;;2.14;100.00;97595.56;5134001;28;24427;-76
2022/01/18 04:12:01;;;;;;;6.55;5.32;;;;;;;2.35;100.00;97595.56;5133573;28;24949;-76
2022/01/18 04:14:27;;;;;;;8.00;6.22;;;;;;;2.17;100.00;97596.41;5131539;28;24466;-77
2022/01/18 04:17:04;;;;;;;7.53;6.03;;;;;;;2.06;100.00;97599.84;5131309;28;24421;-76
2022/01/18 04:27:52;;;;;;;10.18;7.07;;;;;;;2.02;100.00;97606.66;5133885;27;25041;-77
2022/01/18 04:30:18;;;;;;;6.40;5.05;;;;;;;2.40;100.00;97598.09;5135686;27;24833;-76
2022/01/18 04:32:45;;;;;;;6.80;3.60;;;;;;;2.42;100.00;97612.59;5135566;27;24425;-77
2022/01/18 04:35:13;;;;;;;3.70;3.13;;;;;;;2.30;100.00;97604.94;5135660;27;24428;-76
2022/01/18 04:37:39;;;;;;;3.95;3.00;;;;;;;2.09;100.00;97598.13;5135283;27;24432;-78
2022/01/18 04:40:13;;;;;;;4.85;3.33;;;;;;;2.02;100.00;97598.97;5135742;27;24794;-76
2022/01/18 04:43:02;;;;;;;7.72;3.45;;;;;;;2.00;100.00;97603.22;5135107;27;25029;-76
2022/01/18 04:48:30;;;;;;;4.63;3.80;;;;;;;2.09;100.00;97610.06;5135020;27;24424;-76
2022/01/18 04:51:01;;;;;;;6.22;4.30;;;;;;;2.06;100.00;97610.91;5134931;27;24965;-76
2022/01/18 04:53:30;;;;;;;7.50;4.28;;;;;;;2.01;100.00;97604.97;5134809;27;24432;-76
2022/01/18 04:55:59;;;;;;;4.75;4.25;;;;;;;2.12;100.00;97610.91;5134789;27;24405;-75
2022/01/18 04:58:26;;;;;;;9.93;5.35;;;;;;;2.03;100.00;97617.72;5134698;27;24528;-75
2022/01/18 05:00:55;;;;;;;6.10;4.95;;;;;;;1.99;100.00;97611.75;5136512;27;24409;-76
2022/01/18 05:03:22;;;;;;;9.23;5.70;;;;;;;1.90;100.00;97615.16;5135550;27;24413;-76
2022/01/18 05:05:51;;;;;;;5.95;5.18;;;;;;;1.89;100.00;97618.59;5134684;27;24859;-77
2022/01/18 05:08:19;;;;;;;8.38;5.82;;;;;;;1.88;100.00;97616.00;5134692;27;24432;-76
2022/01/18 05:10:51;;;;;;;9.98;7.82;;;;;;;1.87;100.00;97617.72;5134681;27;24424;-76
2022/01/18 05:13:32;;;;;;;11.00;9.07;;;;;;;1.87;100.00;97621.97;5133977;27;24856;-76
2022/01/18 05:16:08;;;;;;;11.10;9.02;;;;;;;1.90;100.00;97614.31;5133494;27;24444;-76
2022/01/18 05:21:24;;;;;;;15.43;10.55;;;;;;;1.90;100.00;97607.50;5134519;27;24404;-75
2022/01/18 05:23:51;;;;;;;15.40;11.02;;;;;;;1.90;100.00;97612.63;5134440;27;24417;-75
2022/01/18 05:26:18;;;;;;;16.45;11.35;;;;;;;1.82;100.00;97610.91;5133906;27;24437;-76
2022/01/18 05:28:44;;;;;;;16.83;9.30;;;;;;;1.74;100.00;97615.13;5134726;27;24429;-76
2022/01/18 05:31:11;;;;;;;12.20;9.07;;;;;;;1.74;100.00;97615.13;5134556;27;24485;-77
2022/01/18 05:33:40;;;;;;;14.63;11.18;;;;;;;1.74;100.00;97623.66;5132659;27;24821;-77
2022/01/18 05:36:06;;;;;;;13.25;9.82;;;;;;;1.76;100.00;97629.63;5134182;27;24542;-76
2022/01/18 05:38:33;;;;;;;14.80;10.13;;;;;;;1.75;100.00;97627.94;5133308;27;24429;-76
2022/01/18 05:41:01;;;;;;;16.65;9.27;;;;;;;1.85;100.00;97623.66;5133871;27;24448;-75
2022/01/18 05:43:27;;;;;;;12.05;9.90;;;;;;;1.85;100.00;97618.56;5134190;27;24779;-76
2022/01/18 05:45:54;;;;;;;14.82;10.27;;;;;;;1.91;100.00;97627.09;5133784;27;24440;-75
2022/01/18 05:48:20;;;;;;;13.98;10.18;;;;;;;1.97;100.00;97627.97;5133685;27;24432;-75
2022/01/18 05:50:47;;;;;;;10.77;9.23;;;;;;;1.98;100.00;97619.44;5133495;27;24973;-75
2022/01/18 05:53:13;;;;;;;12.18;9.27;;;;;;;1.96;100.00;97613.44;5133180;27;24433;-76
2022/01/18 05:55:40;;;;;;;12.25;9.60;;;;;;;1.92;100.00;97617.72;5133841;27;24428;-77
2022/01/18 05:58:08;;;;;;;12.35;9.15;;;;;;;1.98;100.00;97627.09;5140860;27;24440;-75
2022/01/18 06:00:37;;;;;;;13.37;9.07;;;;;;;1.89;100.00;97617.69;5144059;27;24470;-76
2022/01/18 06:03:12;;;;;;;14.07;9.40;;;;;;;1.80;100.00;97627.94;5145609;27;24819;-75
2022/01/18 06:08:22;;;;;;;12.27;9.52;;;;;;;1.85;100.00;97628.78;5143360;27;24896;-75
2022/01/18 06:10:49;;;;;;;12.13;9.90;;;;;;;1.90;100.00;97629.66;5143111;27;24409;-75
2022/01/18 06:13:17;;;;;;;11.75;9.68;;;;;;;1.94;100.00;97621.13;5139095;27;24481;-76
2022/01/18 06:15:44;;;;;;;13.23;9.02;;;;;;;1.94;100.00;97626.25;5133366;27;24429;-82
2022/01/18 06:18:10;;;;;;;12.40;9.15;;;;;;;1.91;100.00;97624.53;5138311;27;25001;-76
2022/01/18 06:20:40;;;;;;;10.63;8.45;;;;;;;1.91;100.00;97623.69;5153916;27;24467;-74
2022/01/18 06:23:06;;;;;;;9.52;8.52;;;;;;;1.89;100.00;97620.25;5149030;27;24482;-77
2022/01/18 06:25:33;;;;;;;9.63;7.23;;;;;;;1.87;100.00;97629.63;5135043;27;24452;-75
2022/01/18 06:27:59;;;;;;;8.97;7.70;;;;;;;1.84;100.00;97627.94;5132873;27;24421;-75
2022/01/18 06:30:27;;;;;;;11.82;6.90;;;;;;;1.68;100.00;97621.09;5133057;27;24520;-75
2022/01/18 06:32:54;;;;;;;9.70;7.77;;;;;;;1.67;100.00;97622.81;5133204;27;24517;-75
2022/01/18 06:35:20;;;;;;;9.27;7.23;;;;;;;1.73;100.00;97629.59;5133281;27;24877;-76
2022/01/18 06:37:47;;;;;;;8.82;7.18;;;;;;;1.75;100.00;97627.06;5135960;27;24413;-74
2022/01/18 06:40:14;;;;;;;10.18;6.80;;;;;;;1.76;100.00;97639.00;5135597;27;24429;-75
2022/01/18 06:42:40;;;;;;;8.90;7.40;;;;;;;1.86;100.00;97636.47;5133086;27;24996;-76
2022/01/18 06:45:08;;;;;;;10.47;7.83;;;;;;;1.92;100.00;97641.56;5121781;27;24436;-75
2022/01/18 06:47:37;;;;;;;8.68;7.40;;;;;;;1.90;100.00;97650.94;5111937;27;24500;-74
2022/01/18 06:50:05;;;;;;;10.13;8.40;;;;;;;1.84;100.00;97652.63;5113436;27;24441;-74
2022/01/18 06:52:31;;;;;;;12.63;7.40;;;;;;;1.87;100.00;97650.94;5128250;27;24436;-74
2022/01/18 06:54:58;;;;;;;10.85;8.27;;;;;;;1.83;100.00;97653.47;5129299;27;24437;-74
2022/01/18 06:57:25;;;;;;;10.23;8.18;;;;;;;1.95;100.00;97653.50;5136932;27;24432;-72
2022/01/18 06:59:52;;;;;;;12.05;8.25;;;;;;;1.97;100.00;97650.97;5143887;27;24494;-74
2022/01/18 07:02:18;;;;;;;9.80;8.60;;;;;;;1.92;100.00;97650.94;5131949;27;25408;-74
2022/01/18 07:04:46;;;;;;;12.15;8.50;;;;;;;1.96;100.00;97657.75;5132346;27;24754;-73
2022/01/18 07:07:12;;;;;;;8.57;7.63;;;;;;;1.90;100.00;97658.59;5131788;27;24453;-74
2022/01/18 07:09:39;;;;;;;7.93;7.13;;;;;;;1.91;100.00;97662.84;5151328;27;24481;-73
2022/01/18 07:12:10;;;;;;;12.57;7.88;;;;;;;1.89;100.00;97666.25;5152548;27;24519;-75
2022/01/18 07:14:36;;;;;;;13.23;7.97;;;;;;;1.93;100.00;97663.72;5147855;27;24432;-75
2022/01/18 07:17:03;;;;;;;11.10;8.40;;;;;;;1.82;100.00;97673.06;5122096;27;24440;-73
2022/01/18 07:19:31;;;;;;;15.05;9.70;;;;;;;1.80;100.00;97671.34;5117293;27;24545;-74
2022/01/18 07:21:59;;;;;;;12.02;8.90;;;;;;;1.67;100.00;97675.59;5126947;27;24433;-74
2022/01/18 07:24:37;;;;;;;13.43;10.10;;;;;;;1.67;100.00;97671.34;5151852;27;24451;-74
2022/01/18 07:27:05;;;;;;;21.73;11.70;;;;;;;1.69;100.00;97681.53;5151940;27;24460;-74
2022/01/18 07:29:31;;;;;;;13.82;11.55;;;;;;;1.72;100.00;97673.03;5126106;27;24436;-74
2022/01/18 07:31:58;;;;;;;17.58;12.02;;;;;;;1.77;100.00;97677.31;5114063;27;24421;-74
2022/01/18 07:34:25;;;;;;;18.40;12.57;;;;;;;1.75;100.00;97679.00;5111909;27;24502;-74
2022/01/18 07:36:51;;;;;;;16.42;11.15;;;;;;;1.85;100.00;97675.59;5116822;27;24440;-74
2022/01/18 07:39:19;;;;;;;24.52;12.35;;;;;;;1.83;100.00;97684.13;5136765;27;24433;-73
2022/01/18 07:41:45;;;;;;;17.48;12.32;;;;;;;1.82;100.00;97675.63;5120621;27;24445;-75
2022/01/18 07:44:12;;;;;;;18.60;12.23;;;;;;;1.85;100.00;97678.16;5121589;27;24433;-75
2022/01/18 07:46:38;;;;;;;19.50;13.32;;;;;;;2.09;100.00;97676.50;5114948;27;24440;-74
2022/01/18 07:49:05;;;;;;;16.58;12.63;;;;;;;1.97;100.00;97677.34;5129966;27;24485;-74
2022/01/18 07:51:31;;;;;;;21.13;13.13;;;;;;;1.97;100.00;97681.63;5128362;27;24430;-74
2022/01/18 07:53:57;;;;;;;18.23;13.20;;;;;;;2.06;100.00;97689.28;5114311;27;24486;-74
2022/01/18 07:56:25;;;;;;;19.90;13.43;;;;;;;2.01;100.00;97686.72;5129688;27;24446;-76
2022/01/18 07:58:52;;;;;;;15.15;12.75;;;;;;;2.00;100.00;97690.13;5117146;27;24434;-76
2022/01/18 08:01:19;;;;;;;16.27;11.82;;;;;;;2.06;100.00;97697.81;5129771;27;24433;-75
2022/01/18 08:03:46;;;;;;;16.08;12.93;;;;;;;2.00;100.00;97702.88;5130795;27;24444;-74
2022/01/18 08:06:12;;;;;;;20.13;12.82;;;;;;;1.94;100.00;97697.78;5118296;27;24457;-74
2022/01/18 08:08:39;;;;;;;25.58;12.63;;;;;;;2.01;100.00;97706.34;5112175;27;24438;-74
2022/01/18 08:11:06;;;;;;;15.55;12.30;;;;;;;2.35;100.00;97702.94;5111601;28;25051;-74
2022/01/18 08:13:39;;;;;;;17.15;12.60;;;;;;;2.18;100.00;97712.31;5129584;27;25000;-74
2022/01/18 08:16:22;;;;;;;17.37;11.43;;;;;;;2.15;100.00;97708.06;5128462;28;24444;-76
2022/01/18 08:18:49;;;;;;;16.75;12.10;;;;;;;2.44;100.00;97712.31;5130404;28;24468;-75
2022/01/18 08:21:15;;;;;;;19.13;12.25;;;;;;;2.36;100.00;97711.47;5121407;28;24977;-73
2022/01/18 08:23:42;;;;;;;18.35;12.85;;;;;;;2.23;100.00;97725.13;5142286;27;24440;-75
2022/01/18 08:26:08;;;;;;;17.48;11.95;;;;;;;2.43;100.00;97721.69;5140856;27;24436;-75
2022/01/18 08:28:36;;;;;;;18.17;12.32;;;;;;;2.50;100.00;97714.88;5151851;27;24427;-76
2022/01/18 08:31:04;;;;;;;17.80;11.65;;;;;;;2.61;100.00;97723.41;5129032;27;24489;-75
2022/01/18 08:33:32;;;;;;;18.88;12.65;;;;;;;2.46;100.00;97725.13;5118208;28;24438;-79
2022/01/18 08:35:59;;;;;;;17.85;11.77;;;;;;;2.45;100.00;97719.16;5119068;27;24445;-76
2022/01/18 08:38:26;;;;;;;18.52;11.40;;;;;;;2.54;100.00;97718.31;5129540;27;24455;-73
2022/01/18 08:40:54;;;;;;;17.08;11.60;;;;;;;2.57;100.00;97719.16;5130804;27;24436;-74
2022/01/18 08:43:20;;;;;;;15.40;11.67;;;;;;;2.57;100.00;97721.72;5131009;28;24433;-75
2022/01/18 08:45:48;;;;;;;16.73;11.80;;;;;;;2.91;100.00;97717.41;5151591;27;24436;-75
2022/01/18 08:48:15;;;;;;;19.27;11.48;;;;;;;2.96;100.00;97722.53;5136388;27;24457;-76
2022/01/18 08:50:42;;;;;;;15.20;11.43;;;;;;;2.80;100.00;97718.28;5155862;27;24481;-75
2022/01/18 08:53:08;;;;;;;18.80;11.55;;;;;;;2.80;100.00;97723.41;5159999;27;24428;-75
2022/01/18 08:55:35;;;;;;;19.60;12.00;;;;;;;2.91;100.00;97719.97;5150600;27;24806;-76
2022/01/18 08:58:02;;;;;;;16.08;11.95;;;;;;;2.73;100.00;97721.72;5150472;27;24424;-75
2022/01/18 09:00:30;;;;;;;22.42;11.75;;;;;;;3.01;100.00;97725.09;5136913;27;25058;-76
2022/01/18 09:02:58;;;;;;;16.83;11.63;;;;;;;2.99;100.00;97724.22;5138708;27;24421;-75
2022/01/18 09:05:25;;;;;;;18.53;12.70;;;;;;;3.13;100.00;97727.63;5141527;27;24412;-75
2022/01/18 09:07:53;;;;;;;17.15;12.30;;;;;;;3.03;100.00;97731.06;5130508;28;24453;-75
2022/01/18 09:10:19;;;;;;;18.85;13.25;;;;;;;2.76;100.00;97731.94;5144014;27;24995;-75
2022/01/18 09:12:46;;;;;;;17.80;12.52;;;;;;;3.06;100.00;97723.38;5159883;27;24412;-75
2022/01/18 09:15:13;;;;;;;15.40;12.05;;;;;;;2.97;100.00;97729.38;5127491;27;24429;-75
2022/01/18 09:17:41;;;;;;;19.33;12.13;;;;;;;2.99;100.00;97719.97;5133755;27;24421;-75
2022/01/18 09:20:12;;;;;;;15.00;12.25;;;;;;;3.01;100.00;97715.72;5133704;27;24981;-75
2022/01/18 09:22:41;;;;;;;17.63;12.00;;;;;;;3.08;100.00;97712.28;5133535;27;24829;-75
2022/01/18 09:25:11;;;;;;;18.08;11.85;;;;;;;3.28;100.00;97719.06;5133780;27;25145;-75
2022/01/18 09:27:38;;;;;;;21.45;12.35;;;;;;;3.13;100.00;97719.94;5133036;27;24449;-75
2022/01/18 09:30:06;;;;;;;14.15;10.07;;;;;;;3.11;100.00;97725.06;5153308;27;24432;-75
2022/01/18 09:32:32;;;;;;;17.25;9.57;;;;;;;3.45;100.00;97722.44;5154739;27;24781;-75
2022/01/18 09:34:59;;;;;;;19.60;10.07;;;;;;;3.32;100.00;97726.72;5154564;27;24965;-75
2022/01/18 09:37:27;;;;;;;16.52;10.10;;;;;;;3.70;100.00;97727.44;5152598;27;24792;-75
2022/01/18 09:39:53;;;;;;;14.93;10.38;;;;;;;3.69;100.00;97720.63;5154637;27;24461;-75
2022/01/18 09:42:22;;;;;;;15.00;9.98;;;;;;;3.69;100.00;97729.16;5154458;27;24472;-75
2022/01/18 09:44:49;;;;;;;12.48;9.68;;;;;;;3.85;100.00;97735.06;5144573;27;24435;-75
2022/01/18 09:47:16;;;;;;;16.45;10.73;;;;;;;3.86;100.00;97724.81;5153819;27;24505;-75
2022/01/18 09:49:42;;;;;;;15.48;9.90;;;;;;;3.93;100.00;97720.50;5153798;27;24435;-75
2022/01/18 09:52:09;;;;;;;19.98;9.50;;;;;;;4.04;100.00;97726.44;5154340;27;24790;-75
2022/01/18 09:54:37;;;;;;;17.52;9.85;;;;;;;4.04;100.00;97725.56;5138460;27;24989;-76
2022/01/18 09:57:04;;;;;;;13.88;8.07;;;;;;;4.02;100.00;97720.44;5132974;27;24432;-77
2022/01/18 09:59:31;;;;;;;16.55;7.35;;;;;;;4.03;100.00;97719.56;5147423;27;24429;-76
2022/01/18 10:02:00;;;;;;;14.82;7.32;;;;;;;4.08;100.00;97719.56;5133864;27;24413;-76
2022/01/18 10:04:31;;;;;;;12.77;7.47;;;;;;;4.15;100.00;97722.94;5153516;27;24819;-76
2022/01/18 10:06:58;;;;;;;11.82;6.85;;;;;;;4.35;100.00;97715.97;5148587;27;24480;-75
2022/01/18 10:09:26;;;;;;;14.02;7.43;;;;;;;4.64;100.00;97717.47;5132400;27;24460;-75
2022/01/18 10:12:08;;;;;;;11.45;8.13;;;;;;;4.69;100.00;97719.13;5132470;27;24421;-75
2022/01/18 10:14:36;;;;;;;12.93;7.82;;;;;;;4.85;100.00;97717.25;5143584;27;24435;-75
2022/01/18 10:17:04;;;;;;;12.63;7.97;;;;;;;4.94;100.00;97717.19;5162323;27;24432;-75
2022/01/18 10:19:33;;;;;;;9.45;6.78;;;;;;;4.93;100.00;97715.50;5161489;27;24465;-76
2022/01/18 10:22:11;;;;;;;11.13;7.57;;;;;;;5.13;100.00;97712.72;5153212;27;24456;-76
2022/01/18 10:24:38;;;;;;;14.10;7.50;;;;;;;5.21;100.00;97712.66;5151954;27;25127;-76
2022/01/18 10:27:07;;;;;;;9.88;7.20;;;;;;;5.10;100.00;97711.03;5153378;27;24810;-76
2022/01/18 10:29:37;;;;;;;10.88;7.25;;;;;;;5.16;100.00;97710.13;5153328;27;24992;-75
2022/01/18 10:32:12;;;;;;;9.68;5.90;;;;;;;4.93;100.00;97702.66;5143021;27;24428;-75
2022/01/18 10:35:04;;;;;;;8.05;5.60;;;;;;;4.77;100.00;97699.34;5162672;27;24490;-75
2022/01/18 10:37:31;;;;;;;9.70;6.75;;;;;;;4.91;100.00;97698.41;5161793;27;24856;-75
2022/01/18 10:39:59;;;;;;;19.30;6.60;;;;;;;4.92;100.00;97693.22;5156515;27;24464;-76
2022/01/18 10:42:31;;;;;;;11.27;5.60;;;;;;;4.74;100.00;97689.13;5153201;27;24427;-75
2022/01/18 10:45:03;;;;;;;8.48;5.30;;;;;;;4.70;100.00;97696.88;5135074;27;24525;-76
2022/01/18 10:47:29;;;;;;;9.85;6.15;;;;;;;4.81;100.00;97684.78;5132246;27;24486;-77
2022/01/18 10:49:57;;;;;;;10.98;6.20;;;;;;;4.52;100.00;97685.03;5132553;27;24413;-76
2022/01/18 10:52:26;;;;;;;9.00;6.00;;;;;;;4.19;100.00;97688.69;5133401;27;24420;-75
2022/01/18 10:54:55;;;;;;;8.48;5.55;;;;;;;4.24;100.00;97698.09;5152914;27;24421;-76
2022/01/18 10:57:24;;;;;;;9.55;5.93;;;;;;;4.44;100.00;97684.25;5152633;27;24424;-76
2022/01/18 10:59:56;;;;;;;11.18;5.95;;;;;;;4.19;100.00;97683.56;5144758;27;24425;-75
2022/01/18 11:02:23;;;;;;;8.27;5.15;;;;;;;4.22;100.00;97681.84;5152862;27;24437;-77
2022/01/18 11:04:51;;;;;;;8.10;5.13;;;;;;;4.23;100.00;97675.03;5152702;27;24427;-76
2022/01/18 11:07:20;;;;;;;8.38;6.53;;;;;;;4.26;100.00;97672.41;5152552;27;24456;-75
2022/01/18 11:09:47;;;;;;;10.20;6.47;;;;;;;4.17;100.00;97667.38;5136065;27;24417;-75
2022/01/18 11:12:14;;;;;;;12.87;6.87;;;;;;;4.01;100.00;97658.94;5132097;27;24547;-75
2022/01/18 11:14:45;;;;;;;11.57;6.55;;;;;;;3.74;100.00;97667.63;5135645;27;24440;-75
2022/01/18 11:17:21;;;;;;;9.50;6.25;;;;;;;3.84;100.00;97667.56;5151302;27;25069;-76
2022/01/18 11:19:49;;;;;;;9.82;6.13;;;;;;;4.21;100.00;97657.06;5152755;27;24419;-76
2022/01/18 11:22:16;;;;;;;8.18;6.57;;;;;;;4.39;100.00;97658.63;5152437;27;24417;-76
2022/01/18 11:24:45;;;;;;;6.80;4.95;;;;;;;4.39;100.00;97657.78;5152532;27;24427;-77
2022/01/18 11:27:14;;;;;;;9.93;6.00;;;;;;;4.23;100.00;97652.78;5138738;27;24429;-76
2022/01/18 11:29:41;;;;;;;11.32;7.32;;;;;;;4.25;100.00;97653.59;5129039;27;24432;-76
2022/01/18 11:32:09;;;;;;;10.05;6.93;;;;;;;4.28;100.00;97650.19;5131450;27;24432;-76
2022/01/18 11:34:50;;;;;;;8.23;6.10;;;;;;;3.78;100.00;97659.06;5131533;27;24424;-76
2022/01/18 11:37:23;;;;;;;9.57;5.80;;;;;;;3.72;100.00;97659.94;5130502;27;24528;-77
2022/01/18 11:39:58;;;;;;;7.72;5.72;;;;;;;3.53;100.00;97660.91;5128945;27;24425;-76
2022/01/18 11:42:38;;;;;;;10.35;5.72;;;;;;;3.88;100.00;97666.69;5131389;27;25006;-76
2022/01/18 11:45:29;;;;;;;11.10;6.07;;;;;;;3.75;100.00;97659.94;5130797;27;24445;-76
2022/01/18 11:48:00;;;;;;;13.30;5.43;;;;;;;3.95;100.00;97666.66;5110448;28;24457;-76
2022/01/18 11:50:30;;;;;;;8.68;5.05;;;;;;;4.19;100.00;97647.66;5110878;28;24453;-76
2022/01/18 11:53:25;;;;;;;7.43;4.78;;;;;;;4.10;100.00;97646.88;5113700;28;25614;-75
2022/01/18 11:55:54;;;;;;;10.40;5.13;;;;;;;4.09;100.00;97647.75;5142435;27;24421;-75
2022/01/18 11:58:23;;;;;;;9.45;5.68;;;;;;;4.09;100.00;97647.75;5134096;27;24424;-75
2022/01/18 12:00:53;;;;;;;10.13;5.82;;;;;;;4.04;100.00;97640.94;5149136;27;25007;-75
2022/01/18 12:03:22;;;;;;;10.30;5.38;;;;;;;3.83;100.00;97650.50;5154426;27;24473;-74
2022/01/18 12:05:51;;;;;;;7.37;4.80;;;;;;;3.81;100.00;97641.09;5151327;27;24412;-74
2022/01/18 12:08:31;;;;;;;8.07;5.00;;;;;;;3.98;100.00;97634.16;5148118;27;24806;-76
2022/01/18 12:10:57;;;;;;;12.43;5.50;;;;;;;4.00;100.00;97627.28;5154505;27;24469;-75
2022/01/18 12:13:33;;;;;;;7.30;5.10;;;;;;;4.13;100.00;97628.91;5153831;27;24435;-76
2022/01/18 12:16:02;;;;;;;10.35;5.32;;;;;;;4.23;100.00;97631.41;5154020;27;24435;-75
2022/01/18 12:18:30;;;;;;;6.90;5.60;;;;;;;4.18;100.00;97631.44;5156438;27;24806;-75
2022/01/18 12:21:01;;;;;;;9.98;5.45;;;;;;;4.25;100.00;97627.13;5157886;27;24435;-75
2022/01/18 12:23:29;;;;;;;12.73;6.30;;;;;;;4.25;100.00;97622.84;5161323;27;24433;-75